Time;durP1;ratioP1;P1;durP2;ratioP2;P2;SDS_P1;SDS_P2;PMS_P1;PMS_P2;Temp;Humidity;BMP_temperature;BMP_pressure;BME280_temperature;BME280_humidity;BME280_pressure;Samples;Min_cycle;Max_cycle;Signal;HPM_P1;HPM_P2
2023/08/20 00:02:16;;;;;;;2.40;2.30;;;22.60;99.90;;;23.01;71.15;101952.31;5053622;28;20092;-72
2023/08/20 00:04:47;;;;;;;2.30;2.20;;;22.60;99.90;;;22.98;71.25;101944.31;5061944;28;20116;-70
2023/08/20 00:07:18;;;;;;;2.13;2.03;;;22.60;99.90;;;22.98;71.26;101947.03;5064066;28;20040;-70
2023/08/20 00:09:48;;;;;;;2.40;2.30;;;22.60;99.90;;;22.98;71.39;101949.72;5063575;28;20398;-72
2023/08/20 00:12:16;;;;;;;2.13;2.03;;;22.60;99.90;;;22.95;71.44;101953.44;5069791;28;20127;-70
2023/08/20 00:14:57;;;;;;;2.20;2.10;;;22.60;99.90;;;22.97;71.72;101947.97;5064223;28;20048;-70
2023/08/20 00:17:27;;;;;;;2.40;2.30;;;22.60;99.90;;;22.98;71.60;101952.41;5062841;28;20490;-69
2023/08/20 00:19:57;;;;;;;2.10;2.00;;;22.60;99.90;;;22.99;72.01;101957.78;5063942;28;20048;-69
2023/08/20 00:22:27;;;;;;;2.20;2.10;;;22.60;99.90;;;22.95;72.13;101955.25;5063495;28;20125;-71
2023/08/20 00:24:57;;;;;;;2.10;2.00;;;22.60;99.90;;;22.95;72.04;101966.03;5062603;28;20044;-70
2023/08/20 00:27:25;;;;;;;2.50;2.40;;;22.60;99.90;;;22.95;72.58;101974.13;5064556;28;20536;-70
2023/08/20 00:29:54;;;;;;;2.35;2.25;;;22.60;99.90;;;22.93;73.07;101973.31;5061330;28;20447;-70
2023/08/20 00:32:22;;;;;;;2.58;2.47;;;22.60;99.90;;;22.93;73.43;101982.31;5053289;28;20045;-70
2023/08/20 00:34:50;;;;;;;2.10;2.00;;;22.50;99.90;;;22.92;73.67;101985.03;5060014;28;20131;-71
2023/08/20 00:37:19;;;;;;;2.38;2.28;;;22.50;99.90;;;22.89;73.68;101990.56;5058358;28;20049;-71
2023/08/20 00:39:47;;;;;;;2.13;2.03;;;22.50;99.90;;;22.89;74.03;101979.75;5063900;28;20044;-70
2023/08/20 00:42:17;;;;;;;2.22;2.13;;;22.50;99.90;;;22.89;73.89;101980.66;5062828;28;20108;-71
2023/08/20 00:44:45;;;;;;;2.00;1.90;;;22.50;99.90;;;22.91;74.18;101984.19;5078277;28;20436;-70
2023/08/20 00:47:14;;;;;;;2.35;2.25;;;22.50;99.90;;;22.81;74.14;101981.88;5059004;28;20489;-70
2023/08/20 00:49:43;;;;;;;2.22;2.13;;;22.50;99.90;;;22.93;74.23;101989.50;5079485;28;20040;-71
2023/08/20 00:52:13;;;;;;;2.30;2.20;;;22.50;99.90;;;22.93;74.20;101986.81;5060987;28;20399;-70
2023/08/20 00:54:42;;;;;;;2.30;2.20;;;22.50;99.90;;;22.90;74.40;101995.03;5053261;28;20044;-70
2023/08/20 00:57:11;;;;;;;2.10;2.00;;;22.50;99.90;;;22.91;74.77;102000.38;5052931;28;20047;-70
2023/08/20 00:59:40;;;;;;;2.15;2.05;;;22.50;99.90;;;22.90;74.98;101997.75;5057116;28;20482;-70
2023/08/20 01:02:09;;;;;;;2.30;2.20;;;22.50;99.90;;;22.88;75.15;101999.63;5061098;28;20044;-71
2023/08/20 01:04:38;;;;;;;2.22;2.13;;;22.50;99.90;;;22.88;75.52;101999.63;5063092;28;20068;-70
2023/08/20 01:07:19;;;;;;;2.40;2.30;;;22.50;99.90;;;22.86;75.73;102009.59;5063110;28;20409;-70
2023/08/20 01:09:57;;;;;;;2.15;2.05;;;22.40;99.90;;;22.85;75.87;102003.28;5052461;28;20533;-70
2023/08/20 01:12:26;;;;;;;2.30;2.20;;;22.40;99.90;;;22.79;76.12;101992.72;5068375;28;20397;-70
2023/08/20 01:14:56;;;;;;;1.98;1.88;;;22.40;99.90;;;22.79;76.11;101992.72;5052691;28;20056;-71
2023/08/20 01:17:24;;;;;;;2.53;2.43;;;22.40;99.90;;;22.82;76.05;101994.44;5059471;28;20059;-70
2023/08/20 01:19:53;;;;;;;1.95;1.85;;;22.40;99.90;;;22.80;76.17;102004.41;5064280;28;20306;-71
2023/08/20 01:23:13;;;;;;;2.30;2.20;;;22.40;99.90;;;22.73;76.37;102001.03;5060477;28;20052;-70
2023/08/20 01:26:01;;;;;;;2.20;2.10;;;22.30;99.90;;;22.76;76.31;102000.06;5021776;28;20049;-69
2023/08/20 01:28:32;;;;;;;2.70;2.60;;;22.30;99.90;;;22.79;76.20;102002.63;5004429;28;20115;-71
2023/08/20 01:31:02;;;;;;;2.58;2.47;;;22.30;99.90;;;22.73;76.31;101995.63;5046482;28;20096;-71
2023/08/20 01:33:31;;;;;;;2.40;2.30;;;22.30;99.90;;;22.66;76.56;102004.91;5059442;28;20053;-71
2023/08/20 01:35:59;;;;;;;2.08;1.98;;;22.30;99.90;;;22.72;76.57;101998.41;5051289;28;20482;-70
2023/08/20 01:38:28;;;;;;;2.47;2.38;;;22.30;99.90;;;22.73;76.60;102005.53;5052516;28;20402;-71
2023/08/20 01:40:56;;;;;;;2.63;2.53;;;22.30;99.90;;;22.57;78.53;101999.81;5052504;28;20072;-70
2023/08/20 01:43:24;;;;;;;2.50;2.40;;;22.20;99.90;;;22.22;78.68;101992.94;5053734;28;20045;-70
2023/08/20 01:45:56;;;;;;;;;;;21.80;99.90;;;22.12;79.30;101996.03;5062666;28;20102;-71
2023/08/20 01:48:25;;;;;;;2.38;2.28;;;21.70;99.90;;;22.12;79.53;102001.41;5063290;28;19966;-70
2023/08/20 01:50:53;;;;;;;2.70;2.60;;;21.70;99.90;;;22.14;79.54;101995.00;5061524;28;20402;-70
2023/08/20 01:53:21;;;;;;;2.58;2.47;;;21.70;99.90;;;22.19;79.36;101995.75;5063646;28;20044;-70
2023/08/20 01:55:50;;;;;;;2.20;2.10;;;21.70;99.90;;;22.06;79.80;101993.53;5060385;28;20041;-70
2023/08/20 01:58:18;;;;;;;2.40;2.30;;;21.70;99.90;;;22.05;79.92;101989.06;5052048;28;20111;-71
2023/08/20 02:00:47;;;;;;;2.20;2.10;;;21.60;99.90;;;22.00;80.30;101983.84;5067095;28;20036;-70
2023/08/20 02:03:17;;;;;;;2.40;2.30;;;21.50;99.90;;;21.88;81.61;101980.66;5058263;28;20103;-71
2023/08/20 02:05:46;;;;;;;2.40;2.30;;;21.40;99.90;;;21.84;81.94;101989.78;5080856;28;20049;-70
2023/08/20 02:08:14;;;;;;;2.50;2.40;;;21.30;99.90;;;21.72;81.58;101995.56;5066198;28;20120;-70
2023/08/20 02:10:42;;;;;;;2.45;2.35;;;21.30;99.90;;;21.76;81.64;101995.38;5066121;28;20040;-70
2023/08/20 02:13:11;;;;;;;3.10;3.00;;;21.30;99.90;;;21.85;81.08;101995.13;5065374;28;20121;-70
2023/08/20 02:15:39;;;;;;;2.53;2.42;;;21.40;99.90;;;21.89;80.88;101998.59;5062234;28;20060;-70
2023/08/20 02:18:07;;;;;;;2.38;2.28;;;21.40;99.90;;;21.91;80.58;101996.75;5067093;28;20063;-70
2023/08/20 02:20:37;;;;;;;2.38;2.28;;;21.50;99.90;;;21.19;80.37;101882.38;5071185;28;20450;-70
2023/08/20 02:23:05;;;;;;;2.50;2.40;;;21.50;99.90;;;21.87;80.31;101997.78;5063952;28;20053;-71
2023/08/20 02:25:35;;;;;;;2.40;2.30;;;21.50;99.90;;;21.80;80.22;101996.16;5066976;28;20348;-71
2023/08/20 02:28:04;;;;;;;2.55;2.45;;;21.40;99.90;;;21.63;81.13;101985.94;5064841;28;20091;-71
2023/08/20 02:30:33;;;;;;;2.33;2.22;;;21.30;99.90;;;21.61;82.05;101998.56;5065419;28;20052;-71
2023/08/20 02:33:01;;;;;;;2.40;2.30;;;21.10;99.90;;;21.54;82.17;101997.88;5060882;28;20049;-71
2023/08/20 02:35:31;;;;;;;2.78;2.67;;;21.10;99.90;;;21.52;82.78;102009.66;5065752;28;20086;-70
2023/08/20 02:38:01;;;;;;;2.10;2.00;;;21.10;99.90;;;21.50;82.76;102006.97;5064279;28;20474;-71
2023/08/20 02:40:29;;;;;;;2.30;2.20;;;21.10;99.90;;;21.56;83.10;102014.00;5066974;28;20051;-71
2023/08/20 02:42:58;;;;;;;2.25;2.15;;;21.10;99.90;;;21.62;83.62;102015.63;5070840;28;20045;-71
2023/08/20 02:45:26;;;;;;;2.45;2.35;;;21.20;99.90;;;21.67;82.75;102019.03;5055272;28;20041;-70
2023/08/20 02:47:55;;;;;;;2.60;2.50;;;21.20;99.90;;;21.65;82.12;102010.13;5055326;28;20131;-70
2023/08/20 02:50:23;;;;;;;2.60;2.50;;;21.20;99.90;;;21.70;81.62;102019.81;5055224;28;20041;-70
2023/08/20 02:52:52;;;;;;;2.30;2.20;;;21.30;99.90;;;21.69;81.29;102018.06;5064549;28;20041;-71
2023/08/20 02:55:21;;;;;;;2.42;2.33;;;21.30;99.90;;;21.74;80.88;102026.88;5061988;28;20501;-70
2023/08/20 02:57:50;;;;;;;2.23;2.13;;;21.40;99.90;;;21.75;81.05;102033.16;5060920;28;20102;-70
2023/08/20 03:00:18;;;;;;;2.47;2.38;;;21.40;99.90;;;21.75;81.05;102036.75;5065548;28;20513;-71
2023/08/20 03:02:47;;;;;;;2.55;2.45;;;21.40;99.90;;;21.77;80.85;102034.00;5070645;28;20095;-70
2023/08/20 03:05:15;;;;;;;2.95;2.83;;;21.40;99.90;;;21.79;80.88;102037.53;5078400;28;20052;-70
2023/08/20 03:07:44;;;;;;;2.38;2.28;;;21.40;99.90;;;21.84;80.52;102035.56;5066734;28;20037;-70
2023/08/20 03:10:12;;;;;;;2.40;2.30;;;21.50;99.90;;;21.82;80.24;102032.94;5053638;28;20154;-70
2023/08/20 03:12:42;;;;;;;2.85;2.75;;;21.50;99.90;;;21.77;80.50;102036.69;5054768;28;20052;-70
2023/08/20 03:15:11;;;;;;;2.60;2.50;;;21.40;99.90;;;21.78;80.37;102033.94;5054507;28;20052;-70
2023/08/20 03:17:39;;;;;;;2.10;2.00;;;21.40;99.90;;;21.79;80.28;102040.22;5056018;28;20552;-70
2023/08/20 03:20:10;;;;;;;2.65;2.55;;;21.40;99.90;;;21.76;80.34;102033.09;5071388;28;20053;-70
2023/08/20 03:22:39;;;;;;;2.80;2.70;;;21.40;99.90;;;21.74;80.53;102034.97;5065383;28;20406;-70
2023/08/20 03:25:09;;;;;;;2.40;2.30;;;21.30;99.90;;;21.72;80.25;102027.88;5070028;28;20494;-70
2023/08/20 03:27:38;;;;;;;2.40;2.30;;;21.30;99.90;;;21.73;80.21;102026.94;5061302;28;20098;-70
2023/08/20 03:30:09;;;;;;;2.65;2.55;;;21.30;99.90;;;21.68;80.18;102029.75;5065839;28;20087;-70
2023/08/20 03:32:37;;;;;;;2.60;2.50;;;21.30;99.90;;;21.67;80.29;102028.00;5072265;28;20079;-70
2023/08/20 03:35:07;;;;;;;2.30;2.20;;;21.30;99.90;;;21.63;80.36;102022.75;5059098;28;20064;-70
2023/08/20 03:37:35;;;;;;;2.25;2.15;;;21.30;99.90;;;21.59;80.31;102024.69;5064128;28;20041;-70
2023/08/20 03:40:06;;;;;;;2.30;2.20;;;21.20;99.90;;;21.62;80.07;102031.78;5063983;28;20260;-70
2023/08/20 03:42:34;;;;;;;2.53;2.43;;;21.20;99.90;;;21.50;80.45;102020.44;5064913;28;20082;-71
2023/08/20 03:45:05;;;;;;;2.40;2.30;;;21.10;99.90;;;21.44;81.99;102022.47;5069506;28;20287;-70
2023/08/20 03:47:36;;;;;;;2.40;2.30;;;21.10;99.90;;;21.45;82.11;102022.41;5072747;28;20055;-71
2023/08/20 03:50:06;;;;;;;3.13;2.97;;;21.00;99.90;;;21.44;82.00;102023.34;5052621;28;20071;-71
2023/08/20 03:52:35;;;;;;;2.40;2.30;;;21.00;99.90;;;21.41;82.03;102023.44;5063345;28;20130;-70
2023/08/20 03:55:06;;;;;;;2.40;2.30;;;21.00;99.90;;;21.40;82.13;102028.88;5054390;28;20562;-70
2023/08/20 03:57:35;;;;;;;2.67;2.58;;;21.00;99.90;;;21.34;82.18;102031.75;5059744;28;20064;-71
2023/08/20 04:00:09;;;;;;;2.30;2.20;;;20.90;99.90;;;21.26;82.48;102029.28;5063828;28;20086;-71
2023/08/20 04:02:44;;;;;;;2.30;2.20;;;20.90;99.90;;;21.12;83.80;102031.50;5054216;28;20053;-71
2023/08/20 04:05:13;;;;;;;2.63;2.53;;;20.70;99.90;;;21.05;84.51;102038.00;5053734;28;20132;-71
2023/08/20 04:07:41;;;;;;;2.22;2.13;;;20.60;99.90;;;20.95;85.31;102035.56;5053700;28;20131;-70
2023/08/20 04:10:10;;;;;;;2.65;2.55;;;20.50;99.90;;;20.90;85.38;102042.91;5062292;28;20045;-70
2023/08/20 04:12:38;;;;;;;2.30;2.20;;;20.50;99.90;;;20.89;85.50;102054.56;5061696;28;20044;-70
2023/08/20 04:15:08;;;;;;;2.63;2.53;;;20.50;99.90;;;20.95;85.19;102054.41;5076729;28;20107;-70
2023/08/20 04:17:36;;;;;;;2.40;2.30;;;20.50;99.90;;;21.02;84.87;102061.41;5060270;28;20053;-70
2023/08/20 04:20:10;;;;;;;2.50;2.40;;;20.50;99.90;;;21.02;84.68;102056.03;5077097;28;20049;-70
2023/08/20 04:22:39;;;;;;;2.58;2.47;;;20.60;99.90;;;21.04;84.79;102060.44;5064343;28;20051;-70
2023/08/20 04:25:08;;;;;;;2.63;2.53;;;20.60;99.90;;;21.05;84.47;102061.31;5062333;28;20048;-71
2023/08/20 04:27:37;;;;;;;2.55;2.45;;;20.70;99.90;;;21.08;84.29;102061.25;5069973;28;20041;-71
2023/08/20 04:30:08;;;;;;;2.65;2.55;;;20.70;99.90;;;21.12;84.02;102063.78;5058964;28;20148;-71
2023/08/20 04:32:36;;;;;;;2.40;2.30;;;20.70;99.90;;;21.13;84.14;102065.56;5079834;28;20078;-71
2023/08/20 04:35:06;;;;;;;2.42;2.33;;;20.80;99.90;;;20.94;84.00;102028.44;5068380;28;20049;-70
2023/08/20 04:37:36;;;;;;;2.40;2.30;;;20.80;99.90;;;21.11;83.80;102063.84;5071702;28;20454;-70
2023/08/20 04:40:07;;;;;;;2.83;2.72;;;20.70;99.90;;;21.07;84.06;102064.84;5053039;28;20052;-70
2023/08/20 04:42:36;;;;;;;2.50;2.40;;;20.70;99.90;;;21.12;84.08;102068.28;5053273;28;20076;-71
2023/08/20 04:45:06;;;;;;;4.32;4.13;;;20.80;99.90;;;21.08;84.44;102061.25;5060249;28;20696;-71
2023/08/20 04:47:36;;;;;;;2.63;2.53;;;20.70;99.90;;;21.07;84.80;102073.81;5051851;28;20110;-71
2023/08/20 04:50:06;;;;;;;2.65;2.55;;;20.70;99.90;;;21.08;84.58;102072.88;5061017;28;20098;-71
2023/08/20 04:52:36;;;;;;;3.28;3.17;;;20.70;99.90;;;21.08;84.38;102074.72;5064642;28;20036;-70
2023/08/20 04:55:07;;;;;;;2.63;2.53;;;20.70;99.90;;;21.05;84.31;102077.47;5051653;28;20060;-70
2023/08/20 04:57:36;;;;;;;2.83;2.72;;;20.70;99.90;;;21.01;84.01;102075.78;5059803;28;20140;-71
2023/08/20 05:00:08;;;;;;;2.92;2.83;;;20.70;99.90;;;21.03;83.92;102079.31;5062236;28;20044;-71
2023/08/20 05:02:58;;;;;;;2.40;2.30;;;20.70;99.90;;;21.07;84.06;102072.94;5060271;28;20095;-71
2023/08/20 05:05:27;;;;;;;2.70;2.60;;;20.70;99.90;;;21.09;83.86;102082.72;5057740;28;20441;-69
2023/08/20 05:07:56;;;;;;;20.73;19.35;;;20.70;99.90;;;21.08;83.80;102074.72;5078090;28;20143;-71
2023/08/20 05:10:25;;;;;;;2.67;2.57;;;20.80;99.90;;;21.10;83.90;102076.41;5077886;28;20068;-71
2023/08/20 05:12:53;;;;;;;2.60;2.50;;;20.80;99.90;;;21.11;83.74;102078.19;5075716;28;20299;-70
2023/08/20 05:15:22;;;;;;;2.80;2.70;;;20.80;99.90;;;20.91;83.34;102044.63;5063819;28;20049;-71
2023/08/20 05:17:51;;;;;;;2.40;2.30;;;20.80;99.90;;;21.09;83.51;102077.34;5059706;28;20037;-71
2023/08/20 05:20:19;;;;;;;2.83;2.72;;;20.80;99.90;;;21.15;83.72;102085.25;5051361;28;20555;-70
2023/08/20 05:22:48;;;;;;;2.63;2.53;;;20.80;99.90;;;21.21;83.95;102077.00;5052675;28;20059;-70
2023/08/20 05:25:18;;;;;;;2.65;2.55;;;20.90;99.90;;;21.30;84.02;102089.28;5062551;28;20139;-70
2023/08/20 05:27:47;;;;;;;2.35;2.25;;;21.00;99.90;;;21.35;84.03;102081.97;5061954;28;20103;-71
2023/08/20 05:30:16;;;;;;;2.33;2.22;;;21.00;99.90;;;21.42;84.18;102088.94;5056614;28;20055;-70
2023/08/20 05:32:45;;;;;;;2.38;2.28;;;21.10;99.90;;;21.54;84.84;102077.81;5058339;28;20148;-70
2023/08/20 05:35:13;;;;;;;2.40;2.30;;;21.10;99.90;;;21.66;85.49;102082.81;5063350;28;20048;-71
2023/08/20 05:37:43;;;;;;;2.92;2.83;;;21.30;99.90;;;21.80;85.34;102077.91;5070483;28;20041;-71
2023/08/20 05:40:12;;;;;;;2.33;2.22;;;21.40;99.90;;;21.84;84.78;102067.91;5075126;28;20048;-70
2023/08/20 05:42:42;;;;;;;2.67;2.58;;;21.50;99.90;;;21.97;85.12;102080.94;5055113;28;20132;-70
2023/08/20 05:45:11;;;;;;;2.50;2.40;;;21.60;99.90;;;22.08;84.47;102081.50;5063372;28;20053;-71
2023/08/20 05:47:39;;;;;;;2.60;2.50;;;21.70;99.90;;;22.20;83.34;102080.22;5071041;28;20040;-71
2023/08/20 05:50:10;;;;;;;4.03;3.83;;;21.80;99.90;;;22.31;82.62;102078.03;5061540;28;20068;-71
2023/08/20 05:52:38;;;;;;;2.42;2.33;;;22.00;99.90;;;22.50;82.23;102081.88;5066240;28;20037;-70
2023/08/20 05:55:07;;;;;;;2.72;2.63;;;22.10;99.90;;;22.65;81.37;102080.50;5065683;28;20072;-70
2023/08/20 05:57:37;;;;;;;2.78;2.67;;;22.30;99.90;;;22.84;80.99;102084.31;5062759;28;20053;-71
2023/08/20 06:00:10;;;;;;;2.33;2.22;;;22.50;99.90;;;23.06;80.16;102091.56;5075010;28;20056;-71
2023/08/20 06:02:41;;;;;;;2.15;2.05;;;22.70;99.90;;;23.27;79.46;102084.50;5065211;28;20060;-71
2023/08/20 06:05:11;;;;;;;2.60;2.50;;;22.90;99.90;;;23.45;78.89;102086.53;5073411;28;20498;-71
2023/08/20 06:07:40;;;;;;;2.20;2.10;;;23.10;99.90;;;23.65;78.70;102092.06;5061337;28;20502;-70
2023/08/20 06:10:09;;;;;;;2.28;2.17;;;23.30;99.90;;;23.75;78.13;102100.69;5066083;28;20069;-70
2023/08/20 06:12:38;;;;;;;2.50;2.40;;;23.40;99.90;;;23.94;77.88;102099.88;5064676;28;20107;-70
2023/08/20 06:15:10;;;;;;;2.33;2.22;;;23.60;99.90;;;24.10;77.48;102101.06;5066765;28;20044;-71
2023/08/20 06:17:38;;;;;;;2.58;2.47;;;23.70;99.90;;;24.23;76.63;102098.75;5063792;28;20386;-70
2023/08/20 06:20:11;;;;;;;2.40;2.30;;;23.90;99.90;;;24.32;76.56;102094.78;5066939;28;20048;-72
2023/08/20 06:22:39;;;;;;;2.20;2.10;;;24.00;99.90;;;24.38;76.72;102094.50;5064866;28;20110;-70
2023/08/20 06:25:09;;;;;;;2.10;2.00;;;24.00;99.90;;;24.51;75.91;102103.88;5065538;28;20127;-71
2023/08/20 06:27:37;;;;;;;1.67;1.67;;;24.10;99.90;;;24.58;75.72;102110.81;5065678;28;20242;-71
2023/08/20 06:30:09;;;;;;;2.15;2.05;;;24.20;99.90;;;24.70;75.38;102110.28;5064543;28;20045;-71
2023/08/20 06:32:38;;;;;;;1.85;1.80;;;24.30;99.90;;;24.72;75.37;102097.56;5067082;28;20072;-71
2023/08/20 06:35:09;;;;;;;2.00;1.90;;;24.40;99.90;;;24.81;75.07;102113.44;5063269;28;20052;-71
2023/08/20 06:37:37;;;;;;;1.65;1.65;;;24.40;99.90;;;24.96;74.85;102110.94;5055282;28;20052;-71
2023/08/20 06:40:07;;;;;;;2.55;2.40;;;24.60;99.90;;;25.06;74.45;102116.81;5070881;28;20053;-71
2023/08/20 06:42:36;;;;;;;2.00;1.90;;;24.70;99.90;;;25.14;73.48;102117.38;5055492;28;20561;-71
2023/08/20 06:45:10;;;;;;;1.60;1.60;;;24.80;99.90;;;25.19;72.97;102114.44;5055019;28;20084;-70
2023/08/20 06:47:38;;;;;;;1.65;1.65;;;24.80;99.90;;;25.23;72.90;102116.94;5062891;28;20481;-71
2023/08/20 06:50:08;;;;;;;1.92;1.90;;;24.90;99.90;;;25.31;72.32;102120.19;5065960;28;20085;-71
2023/08/20 06:52:36;;;;;;;1.98;1.90;;;25.00;99.90;;;25.44;72.31;102120.53;5055201;28;20049;-70
2023/08/20 06:55:05;;;;;;;1.95;1.90;;;25.10;99.90;;;25.55;72.52;102121.78;5055067;28;20533;-71
2023/08/20 06:57:34;;;;;;;1.73;1.73;;;25.20;99.90;;;25.61;71.41;102124.22;5054799;28;20129;-70
2023/08/20 07:00:04;;;;;;;1.65;1.65;;;25.30;99.90;;;25.72;70.81;102131.84;5055344;28;20048;-68
2023/08/20 07:02:34;;;;;;;1.63;1.63;;;25.40;99.90;;;25.87;70.41;102134.72;5062904;28;20413;-74
2023/08/20 07:05:05;;;;;;;1.70;1.70;;;25.50;99.90;;;26.00;69.41;102136.84;5065532;28;20482;-75
2023/08/20 07:07:34;;;;;;;1.70;1.70;;;25.70;99.90;;;26.07;68.95;102141.94;5070313;28;20380;-73
2023/08/20 07:10:04;;;;;;;2.40;2.30;;;25.70;99.90;;;26.13;68.87;102146.19;5079018;28;20056;-71
2023/08/20 07:12:32;;;;;;;2.25;2.15;;;25.80;99.90;;;26.18;68.94;102154.97;5054623;28;20448;-72
2023/08/20 07:15:01;;;;;;;1.50;1.50;;;25.90;99.90;;;26.22;68.65;102151.16;5054621;28;20099;-71
2023/08/20 07:17:29;;;;;;;1.80;1.80;;;25.90;99.90;;;26.18;69.06;102158.56;5059074;28;20099;-72
2023/08/20 07:19:59;;;;;;;2.03;1.92;;;25.80;99.90;;;26.28;68.94;102157.16;5054398;28;20049;-72
2023/08/20 07:22:27;;;;;;;1.67;1.67;;;25.90;99.90;;;26.31;69.11;102156.13;5063213;28;20072;-72
2023/08/20 07:24:55;;;;;;;1.70;1.70;;;25.90;99.90;;;26.36;68.80;102159.50;5064138;28;20032;-72
2023/08/20 07:27:24;;;;;;;1.40;1.40;;;26.00;99.90;;;26.27;68.60;102154.50;5065140;28;20147;-73
2023/08/20 07:29:52;;;;;;;2.00;1.95;;;26.00;99.90;;;26.38;68.54;102163.03;5063052;28;20482;-72
2023/08/20 07:32:22;;;;;;;1.60;1.60;;;26.00;99.90;;;26.44;67.92;102151.88;5065961;28;20056;-72
2023/08/20 07:34:52;;;;;;;2.28;2.17;;;26.10;99.90;;;26.49;67.89;102153.38;5062898;28;20091;-73
2023/08/20 07:37:22;;;;;;;1.70;1.70;;;26.20;99.90;;;26.74;66.97;102166.63;5065718;28;20036;-78
2023/08/20 07:39:50;;;;;;;3.58;3.38;;;26.40;99.90;;;26.78;66.28;102163.69;5058774;28;20166;-76
2023/08/20 07:42:19;;;;;;;1.50;1.50;;;26.40;99.90;;;26.88;65.83;102177.69;5063581;28;20064;-71
2023/08/20 07:44:47;;;;;;;1.58;1.58;;;26.50;99.90;;;27.02;66.35;102174.25;5064273;28;20048;-71
2023/08/20 07:47:15;;;;;;;1.63;1.63;;;26.70;99.90;;;27.03;65.43;102179.59;5064019;28;20120;-71
2023/08/20 07:49:44;;;;;;;1.63;1.63;;;26.80;99.90;;;27.05;64.87;102179.50;5063002;28;20044;-73
2023/08/20 07:52:12;;;;;;;1.50;1.50;;;26.70;99.90;;;27.12;64.36;102189.13;5064734;28;20071;-72
2023/08/20 07:54:44;;;;;;;1.50;1.50;;;26.80;99.90;;;27.14;63.36;102182.63;5062333;28;20449;-70
2023/08/20 07:57:12;;;;;;;1.40;1.40;;;26.80;99.90;;;27.03;63.53;102184.16;5061677;28;20091;-73
2023/08/20 07:59:41;;;;;;;1.50;1.50;;;26.80;99.90;;;26.99;64.91;102188.88;5071811;28;20044;-74
2023/08/20 08:02:09;;;;;;;2.67;2.58;;;26.70;99.90;;;27.14;65.37;102198.06;5062711;28;20136;-70
2023/08/20 08:04:37;;;;;;;1.30;1.30;;;26.80;99.90;;;27.18;63.50;102205.97;5064089;28;20044;-69
2023/08/20 08:07:06;;;;;;;1.48;1.48;;;26.80;99.90;;;27.21;63.11;102205.81;5063051;28;20045;-71
2023/08/20 08:09:34;;;;;;;1.60;1.60;;;26.90;99.90;;;27.24;62.63;102200.22;5063422;28;20072;-68
2023/08/20 08:12:05;;;;;;;1.70;1.70;;;26.90;99.90;;;27.37;63.55;102200.50;5063695;28;20041;-68
2023/08/20 08:14:34;;;;;;;1.55;1.55;;;27.00;99.90;;;27.48;63.33;102207.13;5062086;28;20083;-65
2023/08/20 08:17:02;;;;;;;1.20;1.20;;;27.10;99.90;;;27.47;62.38;102201.75;5065174;28;20105;-69
2023/08/20 08:19:30;;;;;;;1.65;1.65;;;27.20;99.90;;;27.41;62.12;102197.50;5061296;28;20461;-67
2023/08/20 08:21:59;;;;;;;2.80;2.60;;;27.10;99.90;;;27.55;61.63;102194.94;5061488;28;20041;-70
2023/08/20 08:24:28;;;;;;;1.42;1.42;;;27.20;99.90;;;27.42;61.10;102177.53;5064372;28;20405;-70
2023/08/20 08:27:00;;;;;;;1.40;1.40;;;27.30;99.90;;;27.58;61.07;102202.91;5062677;28;20044;-71
2023/08/20 08:29:30;;;;;;;1.40;1.40;;;27.30;99.90;;;27.61;61.22;102193.72;5063104;28;20482;-71
2023/08/20 08:31:58;;;;;;;1.42;1.42;;;27.30;99.90;;;27.68;61.39;102201.47;5064032;28;20045;-72
2023/08/20 08:34:26;;;;;;;1.63;1.63;;;27.40;99.90;;;27.69;61.62;102202.34;5062247;28;20056;-72
2023/08/20 08:36:55;;;;;;;1.40;1.40;;;27.50;99.90;;;27.85;62.24;102203.28;5064204;28;20509;-72
2023/08/20 08:39:23;;;;;;;1.55;1.55;;;27.50;99.90;;;27.90;62.36;102211.16;5061237;28;20406;-71
2023/08/20 08:41:55;;;;;;;1.48;1.48;;;27.60;99.90;;;27.92;62.51;102211.97;5051856;28;20041;-67
2023/08/20 08:44:24;;;;;;;1.55;1.52;;;27.60;99.90;;;27.94;60.56;102212.75;5053017;28;20445;-67
2023/08/20 08:46:53;;;;;;;1.25;1.25;;;27.70;99.90;;;27.79;60.17;102205.44;5052852;28;20044;-68
2023/08/20 08:49:22;;;;;;;1.42;1.42;;;27.50;99.90;;;27.82;59.68;102214.31;5054503;28;20040;-68
2023/08/20 08:51:51;;;;;;;1.40;1.40;;;27.50;99.90;;;27.71;59.33;102218.59;5063001;28;20152;-67
2023/08/20 08:54:21;;;;;;;1.60;1.60;;;27.40;99.90;;;27.70;59.02;102214.13;5063239;28;20144;-67
2023/08/20 08:56:50;;;;;;;8.38;7.78;;;27.40;99.90;;;27.71;59.60;102222.19;5061192;28;20056;-68
2023/08/20 08:59:19;;;;;;;1.55;1.55;;;27.40;99.90;;;27.71;59.73;102210.44;5064391;28;20044;-70
2023/08/20 09:01:48;;;;;;;1.40;1.40;;;27.40;99.90;;;27.68;60.33;102209.63;5052431;28;20037;-68
2023/08/20 09:04:18;;;;;;;1.20;1.20;;;27.40;99.90;;;27.61;60.42;102213.66;5053118;28;20041;-70
2023/08/20 09:06:47;;;;;;;1.50;1.50;;;27.30;99.90;;;27.61;60.83;102220.91;5052489;28;20040;-69
2023/08/20 09:09:17;;;;;;;1.70;1.70;;;27.30;99.90;;;27.61;59.58;102221.81;5053952;28;20041;-66
2023/08/20 09:11:46;;;;;;;1.30;1.30;;;27.30;99.90;;;27.66;60.21;102224.28;5061732;28;20044;-67
2023/08/20 09:14:23;;;;;;;1.30;1.30;;;27.30;99.90;;;27.63;60.34;102219.00;5063277;28;21039;-70
2023/08/20 09:16:59;;;;;;;1.30;1.30;;;27.30;99.90;;;27.52;59.47;102213.25;5052931;28;20052;-67
2023/08/20 09:19:36;;;;;;;1.30;1.30;;;27.20;99.90;;;27.53;59.69;102218.63;5053066;28;20053;-67
2023/08/20 09:22:04;;;;;;;1.25;1.25;;;27.20;99.90;;;27.63;59.71;102209.00;5052358;28;20564;-71
2023/08/20 09:24:43;;;;;;;2.00;1.90;;;27.30;99.90;;;27.53;59.52;102201.41;5052778;28;20127;-72
2023/08/20 09:27:12;;;;;;;1.50;1.50;;;27.20;99.90;;;27.67;58.93;102221.47;5061799;28;20139;-71
2023/08/20 09:29:48;;;;;;;1.45;1.45;;;27.30;99.90;;;27.68;58.47;102219.63;5062254;28;20044;-70
2023/08/20 09:32:18;;;;;;;1.30;1.30;;;27.40;99.90;;;27.65;57.89;102220.69;5064063;28;20137;-72
2023/08/20 09:34:49;;;;;;;1.33;1.33;;;27.40;99.90;;;27.66;58.24;102225.16;5060339;28;20048;-69
2023/08/20 09:37:20;;;;;;;1.40;1.40;;;27.40;99.90;;;27.71;58.30;102221.31;5052500;28;20542;-70
2023/08/20 09:39:49;;;;;;;1.52;1.52;;;27.40;99.90;;;27.74;58.39;102224.72;5052560;28;20045;-71
2023/08/20 09:42:18;;;;;;;1.50;1.50;;;27.50;99.90;;;27.71;57.72;102226.75;5052729;28;20040;-73
2023/08/20 09:44:48;;;;;;;1.40;1.40;;;27.50;99.90;;;27.83;58.90;102223.38;5054351;28;20131;-69
2023/08/20 09:47:22;;;;;;;1.40;1.40;;;27.50;99.90;;;27.83;57.14;102229.69;5076738;28;20445;-71
2023/08/20 09:49:54;;;;;;;1.27;1.27;;;27.60;99.90;;;27.84;58.34;102223.28;5060233;28;20139;-69
2023/08/20 09:52:38;;;;;;;1.20;1.20;;;27.60;99.90;;;27.92;58.22;102229.19;5061147;28;20037;-66
2023/08/20 09:55:12;;;;;;;1.50;1.50;;;27.60;99.90;;;27.90;56.77;102228.38;5067623;28;20475;-68
2023/08/20 09:57:41;;;;;;;1.13;1.13;;;27.60;99.90;;;27.97;57.15;102221.66;5060658;28;20037;-69
2023/08/20 10:00:15;;;;;;;1.20;1.20;;;27.70;99.90;;;27.88;55.88;102230.31;5078667;28;20129;-72
2023/08/20 10:02:44;;;;;;;1.10;1.10;;;27.60;99.90;;;27.74;55.58;102218.44;5062374;28;20041;-69
2023/08/20 10:05:15;;;;;;;1.20;1.20;;;27.50;99.90;;;27.86;55.64;102220.47;5077107;28;20409;-69
2023/08/20 10:07:43;;;;;;;;;;;27.50;99.90;;;27.88;55.69;102224.88;5059140;28;20049;-69
2023/08/20 10:10:13;;;;;;;1.50;1.50;;;27.50;99.90;;;27.94;56.21;102223.66;5063409;28;19924;-70
2023/08/20 10:12:43;;;;;;;1.27;1.27;;;27.70;99.90;;;27.95;54.88;102229.03;5060232;28;20064;-68
2023/08/20 10:15:14;;;;;;;1.33;1.33;;;27.70;99.90;;;27.94;54.60;102201.88;5062883;28;20049;-68
2023/08/20 10:17:45;;;;;;;;;;;27.70;99.90;;;28.03;54.73;102225.91;5062445;28;20436;-70
2023/08/20 10:20:16;;;;;;;1.20;1.20;;;27.70;99.90;;;28.01;53.89;102222.41;5061557;28;19920;-69
2023/08/20 10:22:46;;;;;;;1.20;1.20;;;27.80;99.90;;;27.78;53.31;102198.28;5063374;28;20044;-70
2023/08/20 10:25:24;;;;;;;1.27;1.27;;;27.70;99.90;;;27.98;53.54;102209.84;5063254;28;20087;-70